createdAt,value
2022-08-17T00:02:14.513Z,15.74
2022-08-17T00:04:52.704Z,15.87
2022-08-17T00:07:19.382Z,15.84
2022-08-17T00:09:46.079Z,15.78
2022-08-17T00:12:43.465Z,15.76
2022-08-17T00:14:59.432Z,15.82
2022-08-17T00:17:26.111Z,15.84
2022-08-17T00:19:52.734Z,15.81
2022-08-17T00:22:32.815Z,15.69
2022-08-17T00:25:05.380Z,15.47
2022-08-17T00:27:32.118Z,15.48
2022-08-17T00:29:58.799Z,15.54
2022-08-17T00:33:22.894Z,15.57
2022-08-17T00:35:15.326Z,15.62
2022-08-17T00:37:42.379Z,15.55
2022-08-17T00:40:11.266Z,15.43
2022-08-17T00:42:38.447Z,15.53
2022-08-17T00:45:10.185Z,15.48
2022-08-17T00:47:36.871Z,15.45
2022-08-17T00:50:05.645Z,15.43
2022-08-17T00:52:35.734Z,15.49
2022-08-17T00:55:03.186Z,15.36
2022-08-17T00:57:33.437Z,15.28
2022-08-17T01:00:08.410Z,15.25
2022-08-17T01:02:41.901Z,15.35
2022-08-17T01:05:13.187Z,15.33
2022-08-17T01:07:40.433Z,15.28
2022-08-17T01:10:58.882Z,15.12
2022-08-17T01:12:58.183Z,15.18
2022-08-17T01:15:24.850Z,15.19
2022-08-17T01:17:51.594Z,15.28
2022-08-17T01:20:18.335Z,15.20
2022-08-17T01:22:45.029Z,15.23
2022-08-17T01:25:12.874Z,15.17
2022-08-17T01:27:41.292Z,15.09
2022-08-17T01:30:54.316Z,15.08
2022-08-17T01:32:58.003Z,15.12
2022-08-17T01:35:24.911Z,15.05
2022-08-17T01:37:52.304Z,14.90
2022-08-17T01:40:24.026Z,14.97
2022-08-17T01:42:56.485Z,14.89
2022-08-17T01:45:27.647Z,14.89
2022-08-17T01:47:55.537Z,14.90
2022-08-17T01:50:27.074Z,14.89
2022-08-17T01:52:57.441Z,14.83
2022-08-17T01:55:29.026Z,14.94
2022-08-17T01:57:56.070Z,14.90
2022-08-17T02:00:22.866Z,14.72
2022-08-17T02:02:49.675Z,14.82
2022-08-17T02:05:16.570Z,14.82
2022-08-17T02:07:59.408Z,14.83
2022-08-17T02:10:33.685Z,14.86
2022-08-17T02:13:02.471Z,14.84
2022-08-17T02:15:29.329Z,14.84
2022-08-17T02:17:56.155Z,14.67
2022-08-17T02:20:41.247Z,14.68
2022-08-17T02:23:09.935Z,14.65
2022-08-17T02:25:37.010Z,14.70
2022-08-17T02:28:05.084Z,14.71
2022-08-17T02:30:59.242Z,14.70
2022-08-17T02:33:20.110Z,14.64
2022-08-17T02:35:47.111Z,14.66
2022-08-17T02:38:13.793Z,14.66
2022-08-17T02:40:40.796Z,14.64
2022-08-17T02:43:08.912Z,14.50
2022-08-17T02:45:36.271Z,14.50
2022-08-17T02:48:03.853Z,14.51
2022-08-17T02:50:30.504Z,14.45
2022-08-17T02:53:01.456Z,14.47
2022-08-17T02:55:34.809Z,14.46
2022-08-17T02:58:03.656Z,14.52
2022-08-17T03:00:42.759Z,14.50
2022-08-17T03:03:10.975Z,14.36
2022-08-17T03:05:38.708Z,14.16
2022-08-17T03:08:06.892Z,14.19
2022-08-17T03:10:38.657Z,14.12
2022-08-17T03:13:05.318Z,14.21
2022-08-17T03:15:33.755Z,14.13
2022-08-17T03:18:01.786Z,13.92
2022-08-17T03:20:31.870Z,14.01
2022-08-17T03:23:02.901Z,14.23
2022-08-17T03:25:36.558Z,14.26
2022-08-17T03:28:06.271Z,14.10
2022-08-17T03:30:33.671Z,13.88
2022-08-17T03:33:01.791Z,13.95
2022-08-17T03:35:31.901Z,14.01
2022-08-17T03:38:00.337Z,14.01
2022-08-17T03:40:55.729Z,13.99
2022-08-17T03:43:15.609Z,13.98
2022-08-17T03:46:01.199Z,13.88
2022-08-17T03:48:46.550Z,13.87
2022-08-17T03:51:40.262Z,13.88
2022-08-17T03:54:26.211Z,13.83
2022-08-17T03:57:05.272Z,13.83
2022-08-17T03:59:32.560Z,13.82
2022-08-17T04:02:09.052Z,13.86
2022-08-17T04:04:36.434Z,13.89
2022-08-17T04:07:03.672Z,13.82
2022-08-17T04:09:30.429Z,13.80
2022-08-17T04:11:57.549Z,13.77
2022-08-17T04:14:39.329Z,13.86
2022-08-17T04:17:31.909Z,13.71
2022-08-17T04:19:58.651Z,13.81
2022-08-17T04:22:32.844Z,13.80
2022-08-17T04:25:30.782Z,13.76
2022-08-17T04:27:58.141Z,13.77
2022-08-17T04:30:25.610Z,13.79
2022-08-17T04:33:03.886Z,13.90
2022-08-17T04:35:48.371Z,13.76
2022-08-17T04:38:17.931Z,13.69
2022-08-17T04:41:03.567Z,13.81
2022-08-17T04:43:32.464Z,13.82
2022-08-17T04:46:01.728Z,13.95
2022-08-17T04:48:36.245Z,13.92
2022-08-17T04:51:11.799Z,13.78
2022-08-17T04:53:42.395Z,13.89
2022-08-17T04:56:11.790Z,13.98
2022-08-17T04:58:49.983Z,13.98
2022-08-17T05:01:23.407Z,14.05
2022-08-17T05:03:54.979Z,14.11
2022-08-17T05:06:22.518Z,14.30
2022-08-17T05:08:49.728Z,14.46
2022-08-17T05:11:16.612Z,14.82
2022-08-17T05:13:43.667Z,15.09
2022-08-17T05:16:11.045Z,15.33
2022-08-17T05:18:39.208Z,15.61
2022-08-17T05:21:06.995Z,15.78
2022-08-17T05:23:38.502Z,15.82
2022-08-17T05:26:26.225Z,15.99
2022-08-17T05:28:59.458Z,16.05
2022-08-17T05:31:28.943Z,16.24
2022-08-17T05:33:56.000Z,16.51
2022-08-17T05:36:42.603Z,16.85
2022-08-17T05:39:14.379Z,16.91
2022-08-17T05:41:43.577Z,17.26
2022-08-17T05:44:10.860Z,17.28
2022-08-17T05:46:40.320Z,17.57
2022-08-17T05:49:08.272Z,17.67
2022-08-17T05:51:37.849Z,17.58
2022-08-17T05:54:23.246Z,17.91
2022-08-17T05:56:55.791Z,18.37
2022-08-17T05:59:34.871Z,18.53
2022-08-17T06:02:07.748Z,18.73
2022-08-17T06:05:13.352Z,18.91
2022-08-17T06:07:56.202Z,18.76
2022-08-17T06:10:46.722Z,18.99
2022-08-17T06:13:46.432Z,18.96
2022-08-17T06:16:33.152Z,18.84
2022-08-17T06:19:20.008Z,19.24
2022-08-17T06:21:49.743Z,19.15
2022-08-17T06:24:35.982Z,19.41
2022-08-17T06:27:18.260Z,18.78
2022-08-17T06:29:56.873Z,19.26
2022-08-17T06:32:25.185Z,18.74
2022-08-17T06:34:52.483Z,18.75
2022-08-17T06:37:36.412Z,19.26
2022-08-17T06:40:27.498Z,19.83
2022-08-17T06:43:05.617Z,19.88
2022-08-17T06:45:49.421Z,20.16
2022-08-17T06:48:24.893Z,20.01
2022-08-17T06:50:57.629Z,19.75
2022-08-17T06:53:59.574Z,19.99
2022-08-17T06:56:53.995Z,20.95
2022-08-17T06:59:54.518Z,20.84
2022-08-17T07:02:52.769Z,20.50
2022-08-17T07:05:23.074Z,20.73
2022-08-17T07:08:14.910Z,20.93
2022-08-17T07:10:55.253Z,20.68
2022-08-17T07:13:38.844Z,21.25
2022-08-17T07:16:28.744Z,20.85
2022-08-17T07:18:57.415Z,21.80
2022-08-17T07:21:49.832Z,22.35
2022-08-17T07:24:31.823Z,22.17
2022-08-17T07:27:25.022Z,22.38
2022-08-17T07:29:51.843Z,23.08
2022-08-17T07:32:22.988Z,23.44
2022-08-17T07:35:15.738Z,22.26
2022-08-17T07:37:53.252Z,22.64
2022-08-17T07:40:50.206Z,22.66
2022-08-17T07:43:23.097Z,23.17
2022-08-17T07:46:18.640Z,23.67
2022-08-17T07:48:49.862Z,23.32
2022-08-17T07:51:27.605Z,22.68
2022-08-17T07:54:14.391Z,23.37
2022-08-17T07:56:52.507Z,23.23
2022-08-17T07:59:25.361Z,22.65
2022-08-17T08:01:57.419Z,23.08
2022-08-17T08:05:02.057Z,22.79
2022-08-17T08:07:19.071Z,22.99
2022-08-17T08:10:11.752Z,23.55
2022-08-17T08:12:48.329Z,24.68
2022-08-17T08:15:25.801Z,24.67
2022-08-17T08:18:01.590Z,23.67
2022-08-17T08:20:51.821Z,24.31
2022-08-17T08:23:25.557Z,24.37
2022-08-17T08:26:18.444Z,24.61
2022-08-17T08:28:58.291Z,24.99
2022-08-17T08:31:37.747Z,25.24
2022-08-17T08:35:00.591Z,25.42
2022-08-17T08:37:36.738Z,25.31
2022-08-17T08:40:18.090Z,24.95
2022-08-17T08:43:04.042Z,24.60
2022-08-17T08:45:38.298Z,25.00
2022-08-17T08:48:53.974Z,25.48
2022-08-17T08:51:05.352Z,24.90
2022-08-17T08:53:52.494Z,24.93
2022-08-17T08:56:35.023Z,25.84
2022-08-17T08:59:36.521Z,26.04
2022-08-17T09:02:23.202Z,25.55
2022-08-17T09:05:20.596Z,25.77
2022-08-17T09:08:15.978Z,25.77
2022-08-17T09:11:00.002Z,26.32
2022-08-17T09:13:54.779Z,26.25
2022-08-17T09:16:45.276Z,26.77
2022-08-17T09:19:21.503Z,25.92
2022-08-17T09:21:55.339Z,26.75
2022-08-17T09:24:32.987Z,26.74
2022-08-17T09:27:11.943Z,26.48
2022-08-17T09:29:49.703Z,26.56
2022-08-17T09:32:38.414Z,26.20
2022-08-17T09:35:32.768Z,26.99
2022-08-17T09:38:16.313Z,27.04
2022-08-17T09:40:49.144Z,26.76
2022-08-17T09:43:28.120Z,27.07
2022-08-17T09:46:09.671Z,26.92
2022-08-17T09:48:40.773Z,27.95
2022-08-17T09:51:48.242Z,27.74
2022-08-17T09:54:39.656Z,27.75
2022-08-17T09:57:29.312Z,27.72
2022-08-17T10:00:13.842Z,27.66
2022-08-17T10:02:54.564Z,27.48
2022-08-17T10:05:56.619Z,27.77
2022-08-17T10:08:42.042Z,28.74
2022-08-17T10:11:51.577Z,28.60
2022-08-17T10:14:37.395Z,28.29
2022-08-17T10:17:41.522Z,28.32
2022-08-17T10:20:23.381Z,28.22
2022-08-17T10:23:13.632Z,28.19
2022-08-17T10:25:55.938Z,28.29
2022-08-17T10:28:29.512Z,28.54
2022-08-17T10:31:23.234Z,28.84
2022-08-17T10:34:08.336Z,28.76
2022-08-17T10:36:38.017Z,29.10
2022-08-17T10:39:27.316Z,28.80
2022-08-17T10:41:57.890Z,29.26
2022-08-17T10:44:38.602Z,29.16
2022-08-17T10:47:15.148Z,29.37
2022-08-17T10:49:48.130Z,29.79
2022-08-17T10:52:20.869Z,29.58
2022-08-17T10:54:51.747Z,29.54
2022-08-17T10:57:33.928Z,29.52
2022-08-17T11:00:02.688Z,29.40
2022-08-17T11:02:41.513Z,29.56
2022-08-17T11:05:30.132Z,29.56
2022-08-17T11:08:26.004Z,29.63
2022-08-17T11:11:10.859Z,30.17
2022-08-17T11:14:06.937Z,29.96
2022-08-17T11:16:39.591Z,30.45
2022-08-17T11:19:11.252Z,30.33
2022-08-17T11:21:44.179Z,30.22
2022-08-17T11:24:32.459Z,30.01
2022-08-17T11:27:04.108Z,30.12
2022-08-17T11:29:38.061Z,30.19
2022-08-17T11:32:13.503Z,30.17
2022-08-17T11:34:41.949Z,30.43
2022-08-17T11:37:23.922Z,30.68
2022-08-17T11:40:06.590Z,30.22
2022-08-17T11:42:45.521Z,30.33
2022-08-17T11:45:49.636Z,30.37
2022-08-17T11:48:59.410Z,30.66
2022-08-17T11:51:58.480Z,31.08
2022-08-17T11:54:33.807Z,31.37
2022-08-17T11:57:21.641Z,30.87
2022-08-17T11:59:48.389Z,30.80
2022-08-17T12:02:35.081Z,30.76
2022-08-17T12:05:04.711Z,31.00
2022-08-17T12:07:42.613Z,31.20
2022-08-17T12:10:12.426Z,31.25
2022-08-17T12:12:44.284Z,31.30
2022-08-17T12:15:28.702Z,31.39
2022-08-17T12:17:57.130Z,31.35
2022-08-17T12:20:24.398Z,31.24
2022-08-17T12:22:56.736Z,31.08
2022-08-17T12:25:34.518Z,31.14
2022-08-17T12:28:06.238Z,31.51
2022-08-17T12:30:34.381Z,31.42
2022-08-17T12:33:01.361Z,31.68
2022-08-17T12:35:34.747Z,31.73
2022-08-17T12:38:03.738Z,31.85
2022-08-17T12:40:32.259Z,31.80
2022-08-17T12:43:03.181Z,31.55
2022-08-17T12:45:35.889Z,31.90
2022-08-17T12:48:07.797Z,31.99
2022-08-17T12:50:37.290Z,31.90
2022-08-17T12:53:11.391Z,31.56
2022-08-17T12:55:39.045Z,31.75
2022-08-17T12:58:09.925Z,32.14
2022-08-17T13:00:47.513Z,32.34
2022-08-17T13:03:21.161Z,32.44
2022-08-17T13:06:01.051Z,32.57
2022-08-17T13:08:37.738Z,32.34
2022-08-17T13:11:11.322Z,32.40
2022-08-17T13:13:43.680Z,32.15
2022-08-17T13:16:14.365Z,31.79
2022-08-17T13:18:42.431Z,31.69
2022-08-17T13:21:26.886Z,31.37
2022-08-17T13:24:08.132Z,31.44
2022-08-17T13:26:38.309Z,31.71
2022-08-17T13:29:08.352Z,32.06
2022-08-17T13:31:47.480Z,32.01
2022-08-17T13:34:33.265Z,32.29
2022-08-17T13:37:26.936Z,32.45
2022-08-17T13:40:02.617Z,32.40
2022-08-17T13:42:54.066Z,32.35
2022-08-17T13:45:35.131Z,32.44
2022-08-17T13:48:21.642Z,32.74
2022-08-17T13:51:05.121Z,32.45
2022-08-17T13:53:50.562Z,32.73
2022-08-17T13:57:05.190Z,32.94
2022-08-17T13:59:52.999Z,32.61
2022-08-17T14:02:22.652Z,32.72
2022-08-17T14:04:54.071Z,32.75
2022-08-17T14:07:27.765Z,32.49
2022-08-17T14:10:17.402Z,32.07
2022-08-17T14:12:45.371Z,32.23
2022-08-17T14:15:14.991Z,32.29
2022-08-17T14:17:41.850Z,32.13
2022-08-17T14:20:12.296Z,32.13
2022-08-17T14:22:42.880Z,32.22
2022-08-17T14:25:12.088Z,32.38
2022-08-17T14:27:41.872Z,32.10
2022-08-17T14:30:24.510Z,32.14
2022-08-17T14:32:52.267Z,32.00
2022-08-17T14:35:22.129Z,31.91
2022-08-17T14:37:49.966Z,31.90
2022-08-17T14:40:19.563Z,31.87
2022-08-17T14:42:46.621Z,31.85
2022-08-17T14:45:27.402Z,32.01
2022-08-17T14:47:59.270Z,32.06
2022-08-17T14:50:27.241Z,32.13
2022-08-17T14:52:58.201Z,31.89
2022-08-17T14:55:28.509Z,31.87
2022-08-17T14:57:55.339Z,31.74
2022-08-17T15:00:22.290Z,31.74
2022-08-17T15:02:55.882Z,31.48
2022-08-17T15:05:25.002Z,31.19
2022-08-17T15:07:53.544Z,30.82
2022-08-17T15:10:20.663Z,30.76
2022-08-17T15:12:47.550Z,30.77
2022-08-17T15:15:15.992Z,30.78
2022-08-17T15:17:43.754Z,30.44
2022-08-17T15:20:16.785Z,30.33
2022-08-17T15:22:44.564Z,30.08
2022-08-17T15:25:12.772Z,30.06
2022-08-17T15:27:40.607Z,30.01
2022-08-17T15:30:08.780Z,29.76
2022-08-17T15:32:38.852Z,29.70
2022-08-17T15:35:07.962Z,29.69
2022-08-17T15:37:36.468Z,29.57
2022-08-17T15:40:04.620Z,29.76
2022-08-17T15:42:31.430Z,29.74
2022-08-17T15:45:00.036Z,29.73
2022-08-17T15:47:26.914Z,29.81
2022-08-17T15:49:59.456Z,29.72
2022-08-17T15:52:30.134Z,29.71
2022-08-17T15:54:59.394Z,29.72
2022-08-17T15:57:27.056Z,29.73
2022-08-17T15:59:58.816Z,29.79
2022-08-17T16:03:46.438Z,29.98
2022-08-17T16:05:24.944Z,29.83
2022-08-17T16:07:52.834Z,29.91
2022-08-17T16:10:21.130Z,29.86
2022-08-17T16:12:49.856Z,29.80
2022-08-17T16:15:18.102Z,29.80
2022-08-17T16:17:44.923Z,29.67
2022-08-17T16:20:19.717Z,29.74
2022-08-17T16:22:49.161Z,29.59
2022-08-17T16:25:20.072Z,29.47
2022-08-17T16:27:49.302Z,29.34
2022-08-17T16:30:18.203Z,29.39
2022-08-17T16:32:45.723Z,29.26
2022-08-17T16:35:17.482Z,29.13
2022-08-17T16:37:45.602Z,28.90
2022-08-17T16:40:13.859Z,28.75
2022-08-17T16:42:41.160Z,28.63
2022-08-17T16:45:17.102Z,28.41
2022-08-17T16:47:44.019Z,28.27
2022-08-17T16:50:13.971Z,28.13
2022-08-17T16:52:41.422Z,28.05
2022-08-17T16:55:10.311Z,27.79
2022-08-17T16:57:48.544Z,27.75
2022-08-17T17:00:17.962Z,27.71
2022-08-17T17:02:47.391Z,27.68
2022-08-17T17:05:22.404Z,27.55
2022-08-17T17:08:07.882Z,27.30
2022-08-17T17:10:44.902Z,27.25
2022-08-17T17:13:19.351Z,27.23
2022-08-17T17:16:18.390Z,27.06
2022-08-17T17:18:59.539Z,27.00
2022-08-17T17:21:34.382Z,26.94
2022-08-17T17:24:05.183Z,26.88
2022-08-17T17:26:45.531Z,26.78
2022-08-17T17:29:24.722Z,26.72
2022-08-17T17:32:17.228Z,26.63
2022-08-17T17:34:50.514Z,26.51
2022-08-17T17:37:22.853Z,26.07
2022-08-17T17:40:02.740Z,25.99
2022-08-17T17:42:33.860Z,26.04
2022-08-17T17:45:07.583Z,26.05
2022-08-17T17:47:35.707Z,25.98
2022-08-17T17:50:05.023Z,25.76
2022-08-17T17:52:50.505Z,25.48
2022-08-17T17:55:36.121Z,25.57
2022-08-17T17:58:25.318Z,25.30
2022-08-17T18:01:13.752Z,25.08
2022-08-17T18:04:02.020Z,25.05
2022-08-17T18:07:00.965Z,24.89
2022-08-17T18:10:19.847Z,24.89
2022-08-17T18:12:59.338Z,24.94
2022-08-17T18:15:51.404Z,24.96
2022-08-17T18:18:18.303Z,24.76
2022-08-17T18:20:54.060Z,24.51
2022-08-17T18:23:28.066Z,24.36
2022-08-17T18:25:56.503Z,24.24
2022-08-17T18:28:27.241Z,24.18
2022-08-17T18:31:12.462Z,23.90
2022-08-17T18:33:42.499Z,23.87
2022-08-17T18:36:10.970Z,23.91
2022-08-17T18:38:40.942Z,23.92
2022-08-17T18:41:24.746Z,23.51
2022-08-17T18:44:00.432Z,23.51
2022-08-17T18:46:35.433Z,23.42
2022-08-17T18:49:20.502Z,23.58
2022-08-17T18:51:48.270Z,23.45
2022-08-17T18:54:22.363Z,23.32
2022-08-17T18:57:02.182Z,23.08
2022-08-17T18:59:31.830Z,23.05
2022-08-17T19:02:27.313Z,22.94
2022-08-17T19:05:33.267Z,22.80
2022-08-17T19:08:19.289Z,22.70
2022-08-17T19:10:48.701Z,22.80
2022-08-17T19:13:23.985Z,22.67
2022-08-17T19:16:11.821Z,22.74
2022-08-17T19:19:05.201Z,22.98
2022-08-17T19:21:38.970Z,22.98
2022-08-17T19:24:22.444Z,22.99
2022-08-17T19:27:07.284Z,22.99
2022-08-17T19:29:54.582Z,23.00
2022-08-17T19:32:36.960Z,22.75
2022-08-17T19:35:07.280Z,22.78
2022-08-17T19:37:53.766Z,22.74
2022-08-17T19:40:54.672Z,22.61
2022-08-17T19:43:28.328Z,22.28
2022-08-17T19:46:11.064Z,22.19
2022-08-17T19:49:05.975Z,22.21
2022-08-17T19:51:42.040Z,22.32
2022-08-17T19:54:34.111Z,22.19
2022-08-17T19:57:05.334Z,22.10
2022-08-17T19:59:49.142Z,22.01
2022-08-17T20:02:34.754Z,21.91
2022-08-17T20:05:06.389Z,21.80
2022-08-17T20:07:44.375Z,21.73
2022-08-17T20:10:18.411Z,21.56
2022-08-17T20:12:46.176Z,21.43
2022-08-17T20:15:19.241Z,21.34
2022-08-17T20:17:47.963Z,21.35
2022-08-17T20:20:30.572Z,21.24
2022-08-17T20:23:15.370Z,21.11
2022-08-17T20:26:19.335Z,20.91
2022-08-17T20:29:08.207Z,20.91
2022-08-17T20:31:49.708Z,20.98
2022-08-17T20:34:37.438Z,21.01
2022-08-17T20:37:13.084Z,21.03
2022-08-17T20:40:09.371Z,20.90
2022-08-17T20:42:37.051Z,20.86
2022-08-17T20:45:22.240Z,20.74
2022-08-17T20:48:18.537Z,20.86
2022-08-17T20:50:43.691Z,20.99
2022-08-17T20:53:13.623Z,20.99
2022-08-17T20:55:52.197Z,20.82
2022-08-17T20:58:21.351Z,20.67
2022-08-17T21:01:09.740Z,20.77
2022-08-17T21:03:50.067Z,20.70
2022-08-17T21:06:20.753Z,20.60
2022-08-17T21:09:22.724Z,20.66
2022-08-17T21:12:04.392Z,20.46
2022-08-17T21:14:36.708Z,20.56
2022-08-17T21:17:29.621Z,20.42
2022-08-17T21:20:25.372Z,20.48
2022-08-17T21:23:27.456Z,20.46
2022-08-17T21:26:26.745Z,20.40
2022-08-17T21:29:32.804Z,20.44
2022-08-17T21:32:03.866Z,20.46
2022-08-17T21:34:36.571Z,20.54
2022-08-17T21:37:24.212Z,20.54
2022-08-17T21:40:18.474Z,20.61
2022-08-17T21:43:08.390Z,20.32
2022-08-17T21:45:39.020Z,20.25
2022-08-17T21:48:13.138Z,20.12
2022-08-17T21:50:41.894Z,19.96
2022-08-17T21:53:13.387Z,19.96
2022-08-17T21:55:40.602Z,19.95
2022-08-17T21:58:22.591Z,19.74
2022-08-17T22:01:11.366Z,19.82
2022-08-17T22:03:38.818Z,19.92
2022-08-17T22:06:23.541Z,19.77
2022-08-17T22:09:07.374Z,19.68
2022-08-17T22:11:53.824Z,19.73
2022-08-17T22:14:52.606Z,19.59
2022-08-17T22:17:28.133Z,19.70
2022-08-17T22:19:59.244Z,19.69
2022-08-17T22:22:33.163Z,19.61
2022-08-17T22:25:06.312Z,19.61
2022-08-17T22:27:48.720Z,19.34
2022-08-17T22:30:38.436Z,19.38
2022-08-17T22:33:29.841Z,19.36
2022-08-17T22:36:30.808Z,19.39
2022-08-17T22:39:23.118Z,19.33
2022-08-17T22:42:01.021Z,19.51
2022-08-17T22:44:37.659Z,19.33
2022-08-17T22:47:27.627Z,19.26
2022-08-17T22:49:59.152Z,19.18
2022-08-17T22:52:56.169Z,18.86
2022-08-17T22:55:42.512Z,18.97
2022-08-17T22:58:34.682Z,19.05
2022-08-17T23:01:26.500Z,19.06
2022-08-17T23:04:21.009Z,19.17
2022-08-17T23:06:47.746Z,19.04
2022-08-17T23:09:14.465Z,19.09
2022-08-17T23:11:48.685Z,19.25
2022-08-17T23:14:19.317Z,19.41
2022-08-17T23:16:46.704Z,19.43
2022-08-17T23:19:15.828Z,19.53
2022-08-17T23:21:45.115Z,19.58
2022-08-17T23:24:25.163Z,19.51
2022-08-17T23:26:52.448Z,19.61
2022-08-17T23:29:21.421Z,19.57
2022-08-17T23:31:49.376Z,19.48
2022-08-17T23:34:18.401Z,19.43
2022-08-17T23:36:52.396Z,19.32
2022-08-17T23:39:24.590Z,19.31
2022-08-17T23:41:54.858Z,19.35
2022-08-17T23:44:23.685Z,19.17
2022-08-17T23:46:51.889Z,19.13
2022-08-17T23:49:19.256Z,19.14
2022-08-17T23:51:47.395Z,19.08
2022-08-17T23:54:35.044Z,19.02
2022-08-17T23:57:02.949Z,19.16
2022-08-17T23:59:29.683Z,19.14
